Terminal Aerodrome Forecast
Issued by NWS Cleveland, OH

Home | Current Version | Previous Version | Text Only | Print | Product List | Glossary Off
Versions: 1 2 3 4 5 6 7 8 9 10 11 12 13 14

209
FTUS41 KCLE 251732
TAFMFD
TAF
KMFD 251732Z 2518/2618 09005KT P6SM SKC
     FM261100 19008KT P6SM VCSH OVC035
     FM261600 25012G20KT 5SM -SHRA SCT015 OVC030=

USA.gov is the U.S. government's official web portal to all federal, state and local government web resources and services.